sensor_id;sensor_type;location;lat;lon;timestamp;P1;durP1;ratioP1;P2;durP2;ratioP2
30613;SDS011;17381;51.690;5.270;2023-04-08T00:01:36;23.50;;;14.75;;
30613;SDS011;17381;51.690;5.270;2023-04-08T00:12:24;28.10;;;15.23;;
30613;SDS011;17381;51.690;5.270;2023-04-08T00:25:21;22.60;;;14.00;;
30613;SDS011;17381;51.690;5.270;2023-04-08T00:28:05;18.15;;;13.02;;
30613;SDS011;17381;51.690;5.270;2023-04-08T00:30:49;26.27;;;13.90;;
30613;SDS011;17381;51.690;5.270;2023-04-08T00:33:51;28.27;;;14.23;;
30613;SDS011;17381;51.690;5.270;2023-04-08T00:39:52;22.27;;;13.30;;
30613;SDS011;17381;51.690;5.270;2023-04-08T00:43:03;22.77;;;13.85;;
30613;SDS011;17381;51.690;5.270;2023-04-08T00:46:07;28.70;;;14.40;;
30613;SDS011;17381;51.690;5.270;2023-04-08T00:49:07;29.55;;;15.32;;
30613;SDS011;17381;51.690;5.270;2023-04-08T01:03:54;26.48;;;14.65;;
30613;SDS011;17381;51.690;5.270;2023-04-08T01:06:53;26.83;;;14.95;;
30613;SDS011;17381;51.690;5.270;2023-04-08T01:09:43;22.47;;;13.37;;
30613;SDS011;17381;51.690;5.270;2023-04-08T01:16:10;21.35;;;12.32;;
30613;SDS011;17381;51.690;5.270;2023-04-08T01:19:26;25.05;;;13.80;;
30613;SDS011;17381;51.690;5.270;2023-04-08T01:22:32;20.85;;;12.65;;
30613;SDS011;17381;51.690;5.270;2023-04-08T01:30:17;27.02;;;15.68;;
30613;SDS011;17381;51.690;5.270;2023-04-08T01:33:04;27.50;;;15.40;;
30613;SDS011;17381;51.690;5.270;2023-04-08T01:36:05;31.25;;;16.45;;
30613;SDS011;17381;51.690;5.270;2023-04-08T01:38:42;25.40;;;15.57;;
30613;SDS011;17381;51.690;5.270;2023-04-08T01:41:36;25.73;;;15.20;;
30613;SDS011;17381;51.690;5.270;2023-04-08T01:48:54;24.40;;;15.65;;
30613;SDS011;17381;51.690;5.270;2023-04-08T01:59:51;19.65;;;11.60;;
30613;SDS011;17381;51.690;5.270;2023-04-08T02:02:52;27.02;;;15.77;;
30613;SDS011;17381;51.690;5.270;2023-04-08T02:05:27;26.58;;;16.30;;
30613;SDS011;17381;51.690;5.270;2023-04-08T02:12:46;29.05;;;16.88;;
30613;SDS011;17381;51.690;5.270;2023-04-08T02:19:27;30.45;;;17.48;;
30613;SDS011;17381;51.690;5.270;2023-04-08T02:22:05;32.90;;;19.38;;
30613;SDS011;17381;51.690;5.270;2023-04-08T02:25:07;28.67;;;17.60;;
30613;SDS011;17381;51.690;5.270;2023-04-08T02:31:18;29.83;;;17.92;;
30613;SDS011;17381;51.690;5.270;2023-04-08T02:37:21;34.25;;;20.70;;
30613;SDS011;17381;51.690;5.270;2023-04-08T02:40:27;32.38;;;19.25;;
30613;SDS011;17381;51.690;5.270;2023-04-08T02:43:32;29.15;;;17.30;;
30613;SDS011;17381;51.690;5.270;2023-04-08T02:46:26;32.90;;;18.73;;
30613;SDS011;17381;51.690;5.270;2023-04-08T02:49:34;35.00;;;19.80;;
30613;SDS011;17381;51.690;5.270;2023-04-08T02:52:26;34.90;;;19.75;;
30613;SDS011;17381;51.690;5.270;2023-04-08T02:55:34;37.67;;;21.70;;
30613;SDS011;17381;51.690;5.270;2023-04-08T02:58:30;35.60;;;19.83;;
30613;SDS011;17381;51.690;5.270;2023-04-08T03:01:22;32.70;;;19.27;;
30613;SDS011;17381;51.690;5.270;2023-04-08T03:04:15;36.15;;;19.63;;
30613;SDS011;17381;51.690;5.270;2023-04-08T03:07:01;32.92;;;17.90;;
30613;SDS011;17381;51.690;5.270;2023-04-08T03:10:07;31.30;;;19.08;;
30613;SDS011;17381;51.690;5.270;2023-04-08T03:15:59;31.97;;;18.30;;
30613;SDS011;17381;51.690;5.270;2023-04-08T03:18:54;29.52;;;16.95;;
30613;SDS011;17381;51.690;5.270;2023-04-08T03:21:30;29.63;;;16.73;;
30613;SDS011;17381;51.690;5.270;2023-04-08T03:24:11;31.17;;;17.05;;
30613;SDS011;17381;51.690;5.270;2023-04-08T03:27:08;28.13;;;16.48;;
30613;SDS011;17381;51.690;5.270;2023-04-08T03:30:18;28.25;;;16.40;;
30613;SDS011;17381;51.690;5.270;2023-04-08T03:33:08;28.73;;;17.50;;
30613;SDS011;17381;51.690;5.270;2023-04-08T03:35:55;36.17;;;19.83;;
30613;SDS011;17381;51.690;5.270;2023-04-08T03:38:52;33.15;;;18.63;;
30613;SDS011;17381;51.690;5.270;2023-04-08T03:41:24;35.40;;;18.63;;
30613;SDS011;17381;51.690;5.270;2023-04-08T03:44:01;30.17;;;16.75;;
30613;SDS011;17381;51.690;5.270;2023-04-08T03:46:56;30.77;;;16.00;;
30613;SDS011;17381;51.690;5.270;2023-04-08T03:53:05;32.97;;;16.30;;
30613;SDS011;17381;51.690;5.270;2023-04-08T03:55:59;32.63;;;16.95;;
30613;SDS011;17381;51.690;5.270;2023-04-08T03:58:38;27.00;;;15.80;;
30613;SDS011;17381;51.690;5.270;2023-04-08T04:01:36;26.42;;;14.80;;
30613;SDS011;17381;51.690;5.270;2023-04-08T04:04:18;28.48;;;14.82;;
30613;SDS011;17381;51.690;5.270;2023-04-08T04:07:14;22.35;;;12.43;;
30613;SDS011;17381;51.690;5.270;2023-04-08T04:09:57;21.67;;;12.98;;
30613;SDS011;17381;51.690;5.270;2023-04-08T04:12:58;27.02;;;14.48;;
30613;SDS011;17381;51.690;5.270;2023-04-08T04:16:07;27.40;;;15.27;;
30613;SDS011;17381;51.690;5.270;2023-04-08T04:19:02;26.50;;;15.70;;
30613;SDS011;17381;51.690;5.270;2023-04-08T04:21:52;27.50;;;15.68;;
30613;SDS011;17381;51.690;5.270;2023-04-08T04:24:48;25.63;;;14.18;;
30613;SDS011;17381;51.690;5.270;2023-04-08T04:27:35;27.77;;;14.73;;
30613;SDS011;17381;51.690;5.270;2023-04-08T04:30:29;32.95;;;17.38;;
30613;SDS011;17381;51.690;5.270;2023-04-08T04:33:21;42.67;;;19.38;;
30613;SDS011;17381;51.690;5.270;2023-04-08T04:36:32;33.22;;;17.83;;
30613;SDS011;17381;51.690;5.270;2023-04-08T04:39:25;34.08;;;18.80;;
30613;SDS011;17381;51.690;5.270;2023-04-08T04:41:59;38.13;;;19.13;;
30613;SDS011;17381;51.690;5.270;2023-04-08T04:44:41;42.35;;;21.58;;
30613;SDS011;17381;51.690;5.270;2023-04-08T04:47:46;38.17;;;21.38;;
30613;SDS011;17381;51.690;5.270;2023-04-08T04:50:27;34.50;;;19.52;;
30613;SDS011;17381;51.690;5.270;2023-04-08T04:53:23;34.47;;;19.23;;
30613;SDS011;17381;51.690;5.270;2023-04-08T04:56:06;42.67;;;21.00;;
30613;SDS011;17381;51.690;5.270;2023-04-08T04:59:04;39.50;;;20.73;;
30613;SDS011;17381;51.690;5.270;2023-04-08T05:02:03;37.85;;;20.92;;
30613;SDS011;17381;51.690;5.270;2023-04-08T05:05:08;36.78;;;20.63;;
30613;SDS011;17381;51.690;5.270;2023-04-08T05:08:02;35.67;;;19.52;;
30613;SDS011;17381;51.690;5.270;2023-04-08T05:10:51;39.33;;;21.38;;
30613;SDS011;17381;51.690;5.270;2023-04-08T05:13:45;36.17;;;19.63;;
30613;SDS011;17381;51.690;5.270;2023-04-08T05:16:34;38.50;;;20.02;;
30613;SDS011;17381;51.690;5.270;2023-04-08T05:19:44;34.28;;;19.50;;
30613;SDS011;17381;51.690;5.270;2023-04-08T05:22:19;33.83;;;19.27;;
30613;SDS011;17381;51.690;5.270;2023-04-08T05:25:18;42.40;;;21.65;;
30613;SDS011;17381;51.690;5.270;2023-04-08T05:28:02;39.00;;;21.10;;
30613;SDS011;17381;51.690;5.270;2023-04-08T05:30:38;35.63;;;20.40;;
30613;SDS011;17381;51.690;5.270;2023-04-08T05:34:21;35.90;;;19.48;;
30613;SDS011;17381;51.690;5.270;2023-04-08T05:37:12;31.37;;;18.50;;
30613;SDS011;17381;51.690;5.270;2023-04-08T05:40:07;34.05;;;20.02;;
30613;SDS011;17381;51.690;5.270;2023-04-08T05:42:59;33.20;;;18.42;;
30613;SDS011;17381;51.690;5.270;2023-04-08T05:45:57;36.72;;;19.63;;
30613;SDS011;17381;51.690;5.270;2023-04-08T05:48:59;35.20;;;20.63;;
30613;SDS011;17381;51.690;5.270;2023-04-08T05:51:59;37.20;;;20.23;;
30613;SDS011;17381;51.690;5.270;2023-04-08T05:54:36;36.38;;;19.58;;
30613;SDS011;17381;51.690;5.270;2023-04-08T05:57:33;39.60;;;20.58;;
30613;SDS011;17381;51.690;5.270;2023-04-08T06:00:08;39.03;;;20.60;;
30613;SDS011;17381;51.690;5.270;2023-04-08T06:03:04;36.22;;;20.45;;
30613;SDS011;17381;51.690;5.270;2023-04-08T06:06:00;40.20;;;21.70;;
30613;SDS011;17381;51.690;5.270;2023-04-08T06:08:52;38.90;;;20.70;;
30613;SDS011;17381;51.690;5.270;2023-04-08T06:11:45;45.38;;;24.40;;
30613;SDS011;17381;51.690;5.270;2023-04-08T06:14:35;37.55;;;20.75;;
30613;SDS011;17381;51.690;5.270;2023-04-08T06:17:44;38.38;;;21.63;;
30613;SDS011;17381;51.690;5.270;2023-04-08T06:20:40;34.22;;;18.17;;
30613;SDS011;17381;51.690;5.270;2023-04-08T06:23:37;40.92;;;21.73;;
30613;SDS011;17381;51.690;5.270;2023-04-08T06:26:25;60.42;;;23.67;;
30613;SDS011;17381;51.690;5.270;2023-04-08T06:28:58;82.90;;;27.30;;
30613;SDS011;17381;51.690;5.270;2023-04-08T06:31:53;40.05;;;20.92;;
30613;SDS011;17381;51.690;5.270;2023-04-08T06:34:45;43.80;;;19.77;;
30613;SDS011;17381;51.690;5.270;2023-04-08T06:37:36;36.63;;;18.85;;
30613;SDS011;17381;51.690;5.270;2023-04-08T06:40:49;42.33;;;18.52;;
30613;SDS011;17381;51.690;5.270;2023-04-08T06:43:55;61.08;;;20.05;;
30613;SDS011;17381;51.690;5.270;2023-04-08T06:46:45;30.70;;;15.88;;
30613;SDS011;17381;51.690;5.270;2023-04-08T06:49:23;46.05;;;16.73;;
30613;SDS011;17381;51.690;5.270;2023-04-08T06:52:01;35.72;;;16.52;;
30613;SDS011;17381;51.690;5.270;2023-04-08T06:55:05;42.63;;;17.63;;
30613;SDS011;17381;51.690;5.270;2023-04-08T06:58:12;33.05;;;17.08;;
30613;SDS011;17381;51.690;5.270;2023-04-08T07:01:02;36.47;;;16.20;;
30613;SDS011;17381;51.690;5.270;2023-04-08T07:06:47;35.35;;;16.63;;
30613;SDS011;17381;51.690;5.270;2023-04-08T07:09:43;41.72;;;17.67;;
30613;SDS011;17381;51.690;5.270;2023-04-08T07:12:30;37.28;;;15.35;;
30613;SDS011;17381;51.690;5.270;2023-04-08T07:15:19;47.30;;;19.42;;
30613;SDS011;17381;51.690;5.270;2023-04-08T07:18:23;55.63;;;18.52;;
30613;SDS011;17381;51.690;5.270;2023-04-08T07:24:13;30.23;;;16.65;;
30613;SDS011;17381;51.690;5.270;2023-04-08T07:26:48;48.05;;;18.20;;
30613;SDS011;17381;51.690;5.270;2023-04-08T07:29:34;39.95;;;16.92;;
30613;SDS011;17381;51.690;5.270;2023-04-08T07:32:15;56.55;;;17.23;;
30613;SDS011;17381;51.690;5.270;2023-04-08T07:34:57;44.78;;;15.93;;
30613;SDS011;17381;51.690;5.270;2023-04-08T07:37:41;28.50;;;15.45;;
30613;SDS011;17381;51.690;5.270;2023-04-08T07:40:31;35.33;;;15.27;;
30613;SDS011;17381;51.690;5.270;2023-04-08T07:43:29;26.38;;;15.23;;
30613;SDS011;17381;51.690;5.270;2023-04-08T07:46:44;23.02;;;13.65;;
30613;SDS011;17381;51.690;5.270;2023-04-08T07:49:52;24.42;;;14.10;;
30613;SDS011;17381;51.690;5.270;2023-04-08T07:52:45;23.13;;;13.50;;
30613;SDS011;17381;51.690;5.270;2023-04-08T07:55:55;25.90;;;14.02;;
30613;SDS011;17381;51.690;5.270;2023-04-08T07:59:17;23.10;;;13.88;;
30613;SDS011;17381;51.690;5.270;2023-04-08T08:02:20;26.60;;;14.65;;
30613;SDS011;17381;51.690;5.270;2023-04-08T08:05:15;23.27;;;14.60;;
30613;SDS011;17381;51.690;5.270;2023-04-08T08:08:26;22.40;;;14.18;;
30613;SDS011;17381;51.690;5.270;2023-04-08T08:15:16;19.00;;;13.35;;
30613;SDS011;17381;51.690;5.270;2023-04-08T08:18:32;21.30;;;13.35;;
30613;SDS011;17381;51.690;5.270;2023-04-08T08:21:31;24.73;;;14.13;;
30613;SDS011;17381;51.690;5.270;2023-04-08T08:24:03;19.48;;;12.70;;
30613;SDS011;17381;51.690;5.270;2023-04-08T08:26:54;19.23;;;12.95;;
30613;SDS011;17381;51.690;5.270;2023-04-08T08:29:20;18.05;;;12.88;;
30613;SDS011;17381;51.690;5.270;2023-04-08T08:31:50;28.13;;;14.50;;
30613;SDS011;17381;51.690;5.270;2023-04-08T08:34:16;19.67;;;13.40;;
30613;SDS011;17381;51.690;5.270;2023-04-08T08:36:47;19.17;;;13.80;;
30613;SDS011;17381;51.690;5.270;2023-04-08T08:39:23;14.07;;;9.57;;
30613;SDS011;17381;51.690;5.270;2023-04-08T08:41:53;17.42;;;12.63;;
30613;SDS011;17381;51.690;5.270;2023-04-08T08:44:25;18.95;;;13.25;;
30613;SDS011;17381;51.690;5.270;2023-04-08T08:47:00;19.15;;;13.48;;
30613;SDS011;17381;51.690;5.270;2023-04-08T08:49:26;17.20;;;12.50;;
30613;SDS011;17381;51.690;5.270;2023-04-08T08:52:00;17.13;;;12.05;;
30613;SDS011;17381;51.690;5.270;2023-04-08T08:54:29;17.20;;;12.52;;
30613;SDS011;17381;51.690;5.270;2023-04-08T08:57:00;17.75;;;12.73;;
30613;SDS011;17381;51.690;5.270;2023-04-08T08:59:32;17.65;;;11.98;;
30613;SDS011;17381;51.690;5.270;2023-04-08T09:01:59;19.13;;;12.90;;
30613;SDS011;17381;51.690;5.270;2023-04-08T09:04:29;17.15;;;12.25;;
30613;SDS011;17381;51.690;5.270;2023-04-08T09:07:13;17.98;;;11.60;;
30613;SDS011;17381;51.690;5.270;2023-04-08T09:09:53;16.67;;;11.98;;
30613;SDS011;17381;51.690;5.270;2023-04-08T09:12:28;20.67;;;14.15;;
30613;SDS011;17381;51.690;5.270;2023-04-08T09:15:34;16.00;;;12.07;;
30613;SDS011;17381;51.690;5.270;2023-04-08T09:18:07;17.27;;;13.27;;
30613;SDS011;17381;51.690;5.270;2023-04-08T09:20:53;16.38;;;12.10;;
30613;SDS011;17381;51.690;5.270;2023-04-08T09:23:26;17.47;;;12.30;;
30613;SDS011;17381;51.690;5.270;2023-04-08T09:26:29;18.90;;;12.95;;
30613;SDS011;17381;51.690;5.270;2023-04-08T09:28:58;19.50;;;13.00;;
30613;SDS011;17381;51.690;5.270;2023-04-08T09:31:43;18.80;;;13.45;;
30613;SDS011;17381;51.690;5.270;2023-04-08T09:34:24;19.60;;;13.88;;
30613;SDS011;17381;51.690;5.270;2023-04-08T09:37:05;18.90;;;13.20;;
30613;SDS011;17381;51.690;5.270;2023-04-08T09:39:46;20.25;;;14.82;;
30613;SDS011;17381;51.690;5.270;2023-04-08T09:42:29;20.08;;;14.25;;
30613;SDS011;17381;51.690;5.270;2023-04-08T09:45:22;19.75;;;14.05;;
30613;SDS011;17381;51.690;5.270;2023-04-08T09:48:22;19.65;;;14.27;;
30613;SDS011;17381;51.690;5.270;2023-04-08T09:51:16;32.47;;;25.50;;
30613;SDS011;17381;51.690;5.270;2023-04-08T09:54:06;22.50;;;16.95;;
30613;SDS011;17381;51.690;5.270;2023-04-08T09:57:14;21.38;;;16.67;;
30613;SDS011;17381;51.690;5.270;2023-04-08T10:00:16;21.50;;;15.20;;
30613;SDS011;17381;51.690;5.270;2023-04-08T10:06:07;21.77;;;16.83;;
30613;SDS011;17381;51.690;5.270;2023-04-08T10:08:54;20.42;;;14.60;;
30613;SDS011;17381;51.690;5.270;2023-04-08T10:11:24;20.63;;;14.57;;
30613;SDS011;17381;51.690;5.270;2023-04-08T10:13:58;21.20;;;15.70;;
30613;SDS011;17381;51.690;5.270;2023-04-08T10:16:47;20.65;;;15.60;;
30613;SDS011;17381;51.690;5.270;2023-04-08T10:19:38;21.65;;;15.40;;
30613;SDS011;17381;51.690;5.270;2023-04-08T10:22:44;21.80;;;17.60;;
30613;SDS011;17381;51.690;5.270;2023-04-08T10:25:50;20.42;;;14.75;;
30613;SDS011;17381;51.690;5.270;2023-04-08T10:28:29;22.67;;;17.08;;
30613;SDS011;17381;51.690;5.270;2023-04-08T10:31:15;19.27;;;14.52;;
30613;SDS011;17381;51.690;5.270;2023-04-08T10:34:32;16.65;;;13.10;;
30613;SDS011;17381;51.690;5.270;2023-04-08T10:37:39;21.05;;;15.43;;
30613;SDS011;17381;51.690;5.270;2023-04-08T10:40:28;19.38;;;13.88;;
30613;SDS011;17381;51.690;5.270;2023-04-08T10:43:18;19.05;;;14.60;;
30613;SDS011;17381;51.690;5.270;2023-04-08T10:46:10;18.45;;;12.98;;
30613;SDS011;17381;51.690;5.270;2023-04-08T10:48:42;17.85;;;13.32;;
30613;SDS011;17381;51.690;5.270;2023-04-08T10:51:13;17.25;;;13.60;;
30613;SDS011;17381;51.690;5.270;2023-04-08T10:53:43;16.65;;;13.63;;
30613;SDS011;17381;51.690;5.270;2023-04-08T10:56:09;18.45;;;13.75;;
30613;SDS011;17381;51.690;5.270;2023-04-08T10:58:49;17.52;;;13.57;;
30613;SDS011;17381;51.690;5.270;2023-04-08T11:01:31;16.80;;;12.65;;
30613;SDS011;17381;51.690;5.270;2023-04-08T11:04:15;16.08;;;12.48;;
30613;SDS011;17381;51.690;5.270;2023-04-08T11:06:50;16.30;;;11.95;;
30613;SDS011;17381;51.690;5.270;2023-04-08T11:09:48;14.95;;;11.32;;
30613;SDS011;17381;51.690;5.270;2023-04-08T11:37:17;15.30;;;11.57;;
30613;SDS011;17381;51.690;5.270;2023-04-08T11:40:30;13.18;;;11.00;;
30613;SDS011;17381;51.690;5.270;2023-04-08T11:44:13;15.27;;;11.38;;
30613;SDS011;17381;51.690;5.270;2023-04-08T11:51:06;13.93;;;10.45;;
30613;SDS011;17381;51.690;5.270;2023-04-08T11:54:13;18.00;;;12.00;;
30613;SDS011;17381;51.690;5.270;2023-04-08T11:57:33;14.77;;;10.95;;
30613;SDS011;17381;51.690;5.270;2023-04-08T12:00:26;13.88;;;10.40;;
30613;SDS011;17381;51.690;5.270;2023-04-08T12:03:23;11.85;;;9.32;;
30613;SDS011;17381;51.690;5.270;2023-04-08T12:06:14;11.25;;;9.48;;
30613;SDS011;17381;51.690;5.270;2023-04-08T12:11:42;11.88;;;9.02;;
30613;SDS011;17381;51.690;5.270;2023-04-08T12:14:31;11.65;;;9.52;;
30613;SDS011;17381;51.690;5.270;2023-04-08T12:17:15;10.90;;;9.23;;
30613;SDS011;17381;51.690;5.270;2023-04-08T12:20:03;12.45;;;9.02;;
30613;SDS011;17381;51.690;5.270;2023-04-08T12:22:41;11.75;;;9.38;;
30613;SDS011;17381;51.690;5.270;2023-04-08T12:25:10;11.18;;;9.10;;
30613;SDS011;17381;51.690;5.270;2023-04-08T12:27:56;11.48;;;9.32;;
30613;SDS011;17381;51.690;5.270;2023-04-08T12:30:35;11.23;;;8.23;;
30613;SDS011;17381;51.690;5.270;2023-04-08T12:33:29;11.75;;;9.40;;
30613;SDS011;17381;51.690;5.270;2023-04-08T12:36:19;10.60;;;8.50;;
30613;SDS011;17381;51.690;5.270;2023-04-08T12:39:16;13.00;;;9.63;;
30613;SDS011;17381;51.690;5.270;2023-04-08T12:42:00;11.13;;;8.50;;
30613;SDS011;17381;51.690;5.270;2023-04-08T12:44:46;10.98;;;9.00;;
30613;SDS011;17381;51.690;5.270;2023-04-08T12:47:40;11.70;;;9.20;;
30613;SDS011;17381;51.690;5.270;2023-04-08T12:50:36;11.70;;;9.27;;
30613;SDS011;17381;51.690;5.270;2023-04-08T12:53:46;14.25;;;9.43;;
30613;SDS011;17381;51.690;5.270;2023-04-08T12:56:30;13.30;;;8.95;;
30613;SDS011;17381;51.690;5.270;2023-04-08T12:59:10;10.98;;;7.93;;
30613;SDS011;17381;51.690;5.270;2023-04-08T13:01:54;12.05;;;9.13;;
30613;SDS011;17381;51.690;5.270;2023-04-08T13:04:31;12.30;;;9.20;;
30613;SDS011;17381;51.690;5.270;2023-04-08T13:07:30;10.90;;;8.45;;
30613;SDS011;17381;51.690;5.270;2023-04-08T13:10:26;13.07;;;8.90;;
30613;SDS011;17381;51.690;5.270;2023-04-08T13:13:33;11.68;;;8.20;;
30613;SDS011;17381;51.690;5.270;2023-04-08T13:16:23;10.75;;;8.63;;
30613;SDS011;17381;51.690;5.270;2023-04-08T13:19:20;10.38;;;7.25;;
30613;SDS011;17381;51.690;5.270;2023-04-08T13:25:32;11.13;;;8.20;;
30613;SDS011;17381;51.690;5.270;2023-04-08T13:28:31;12.60;;;8.63;;
30613;SDS011;17381;51.690;5.270;2023-04-08T13:31:21;10.38;;;7.43;;
30613;SDS011;17381;51.690;5.270;2023-04-08T13:47:06;12.30;;;8.82;;
30613;SDS011;17381;51.690;5.270;2023-04-08T13:50:10;12.75;;;8.43;;
30613;SDS011;17381;51.690;5.270;2023-04-08T13:52:49;12.55;;;9.15;;
30613;SDS011;17381;51.690;5.270;2023-04-08T13:55:42;10.20;;;7.22;;
30613;SDS011;17381;51.690;5.270;2023-04-08T13:58:35;12.40;;;7.65;;
30613;SDS011;17381;51.690;5.270;2023-04-08T14:04:10;11.75;;;7.43;;
30613;SDS011;17381;51.690;5.270;2023-04-08T14:06:47;11.27;;;7.82;;
30613;SDS011;17381;51.690;5.270;2023-04-08T14:09:48;11.75;;;7.65;;
30613;SDS011;17381;51.690;5.270;2023-04-08T14:12:40;10.48;;;7.18;;
30613;SDS011;17381;51.690;5.270;2023-04-08T14:15:36;10.63;;;6.47;;
30613;SDS011;17381;51.690;5.270;2023-04-08T14:18:23;11.00;;;6.82;;
30613;SDS011;17381;51.690;5.270;2023-04-08T14:21:40;11.23;;;7.28;;
30613;SDS011;17381;51.690;5.270;2023-04-08T14:24:07;14.25;;;7.57;;
30613;SDS011;17381;51.690;5.270;2023-04-08T14:27:11;12.48;;;7.28;;
30613;SDS011;17381;51.690;5.270;2023-04-08T14:29:52;9.88;;;6.45;;
30613;SDS011;17381;51.690;5.270;2023-04-08T14:32:57;12.02;;;7.15;;
30613;SDS011;17381;51.690;5.270;2023-04-08T14:35:49;9.73;;;6.05;;
30613;SDS011;17381;51.690;5.270;2023-04-08T14:38:21;10.60;;;6.53;;
30613;SDS011;17381;51.690;5.270;2023-04-08T14:40:53;10.80;;;6.60;;
30613;SDS011;17381;51.690;5.270;2023-04-08T14:43:41;12.98;;;6.90;;
30613;SDS011;17381;51.690;5.270;2023-04-08T14:46:36;10.50;;;6.20;;
30613;SDS011;17381;51.690;5.270;2023-04-08T14:49:25;9.75;;;6.25;;
30613;SDS011;17381;51.690;5.270;2023-04-08T14:52:29;11.55;;;5.85;;
30613;SDS011;17381;51.690;5.270;2023-04-08T14:55:21;9.18;;;5.82;;
30613;SDS011;17381;51.690;5.270;2023-04-08T14:57:57;10.38;;;6.22;;
30613;SDS011;17381;51.690;5.270;2023-04-08T15:00:53;12.55;;;6.18;;
30613;SDS011;17381;51.690;5.270;2023-04-08T15:03:59;12.25;;;5.95;;
30613;SDS011;17381;51.690;5.270;2023-04-08T15:06:45;10.63;;;6.28;;
30613;SDS011;17381;51.690;5.270;2023-04-08T15:09:40;12.15;;;6.30;;
30613;SDS011;17381;51.690;5.270;2023-04-08T15:12:24;9.40;;;5.90;;
30613;SDS011;17381;51.690;5.270;2023-04-08T15:15:22;9.57;;;5.40;;
30613;SDS011;17381;51.690;5.270;2023-04-08T15:18:14;9.05;;;5.88;;
30613;SDS011;17381;51.690;5.270;2023-04-08T15:21:01;12.48;;;5.05;;
30613;SDS011;17381;51.690;5.270;2023-04-08T15:23:37;9.90;;;5.65;;
30613;SDS011;17381;51.690;5.270;2023-04-08T15:26:12;13.55;;;5.32;;
30613;SDS011;17381;51.690;5.270;2023-04-08T15:29:15;9.25;;;5.35;;
30613;SDS011;17381;51.690;5.270;2023-04-08T15:32:03;9.15;;;5.28;;
30613;SDS011;17381;51.690;5.270;2023-04-08T15:34:58;8.98;;;5.15;;
30613;SDS011;17381;51.690;5.270;2023-04-08T15:37:53;8.23;;;4.93;;
30613;SDS011;17381;51.690;5.270;2023-04-08T15:40:53;9.65;;;5.60;;
30613;SDS011;17381;51.690;5.270;2023-04-08T15:43:52;10.48;;;5.90;;
30613;SDS011;17381;51.690;5.270;2023-04-08T15:46:48;9.00;;;5.07;;
30613;SDS011;17381;51.690;5.270;2023-04-08T15:49:41;9.88;;;5.93;;
30613;SDS011;17381;51.690;5.270;2023-04-08T15:52:41;9.00;;;5.70;;
30613;SDS011;17381;51.690;5.270;2023-04-08T15:55:55;7.53;;;4.50;;
30613;SDS011;17381;51.690;5.270;2023-04-08T15:58:38;10.00;;;5.05;;
30613;SDS011;17381;51.690;5.270;2023-04-08T16:01:34;10.68;;;5.95;;
30613;SDS011;17381;51.690;5.270;2023-04-08T16:04:26;11.88;;;6.55;;
30613;SDS011;17381;51.690;5.270;2023-04-08T16:07:24;9.48;;;6.13;;
30613;SDS011;17381;51.690;5.270;2023-04-08T16:10:19;11.93;;;6.55;;
30613;SDS011;17381;51.690;5.270;2023-04-08T16:13:14;11.55;;;6.90;;
30613;SDS011;17381;51.690;5.270;2023-04-08T16:16:07;8.82;;;5.60;;
30613;SDS011;17381;51.690;5.270;2023-04-08T16:19:03;9.52;;;5.65;;
30613;SDS011;17381;51.690;5.270;2023-04-08T16:22:03;9.40;;;6.03;;
30613;SDS011;17381;51.690;5.270;2023-04-08T16:24:47;10.88;;;6.50;;
30613;SDS011;17381;51.690;5.270;2023-04-08T16:27:48;9.30;;;6.22;;
30613;SDS011;17381;51.690;5.270;2023-04-08T16:30:31;11.18;;;6.05;;
30613;SDS011;17381;51.690;5.270;2023-04-08T16:33:30;10.40;;;6.15;;
30613;SDS011;17381;51.690;5.270;2023-04-08T16:36:32;9.68;;;5.95;;
30613;SDS011;17381;51.690;5.270;2023-04-08T16:39:29;11.90;;;6.13;;
30613;SDS011;17381;51.690;5.270;2023-04-08T16:42:23;9.80;;;6.25;;
30613;SDS011;17381;51.690;5.270;2023-04-08T16:45:23;9.55;;;5.97;;
30613;SDS011;17381;51.690;5.270;2023-04-08T16:48:12;9.02;;;5.60;;
30613;SDS011;17381;51.690;5.270;2023-04-08T16:51:10;9.55;;;5.80;;
30613;SDS011;17381;51.690;5.270;2023-04-08T16:54:03;10.52;;;5.20;;
30613;SDS011;17381;51.690;5.270;2023-04-08T16:56:55;9.90;;;5.35;;
30613;SDS011;17381;51.690;5.270;2023-04-08T16:59:51;7.57;;;5.10;;
30613;SDS011;17381;51.690;5.270;2023-04-08T17:02:56;11.88;;;5.40;;
30613;SDS011;17381;51.690;5.270;2023-04-08T17:05:42;10.27;;;6.25;;
30613;SDS011;17381;51.690;5.270;2023-04-08T17:08:35;7.47;;;5.00;;
30613;SDS011;17381;51.690;5.270;2023-04-08T17:11:22;8.02;;;5.03;;
30613;SDS011;17381;51.690;5.270;2023-04-08T17:14:14;10.32;;;6.28;;
30613;SDS011;17381;51.690;5.270;2023-04-08T17:17:25;9.25;;;6.00;;
30613;SDS011;17381;51.690;5.270;2023-04-08T17:20:13;8.32;;;4.97;;
30613;SDS011;17381;51.690;5.270;2023-04-08T17:22:56;11.40;;;5.93;;
30613;SDS011;17381;51.690;5.270;2023-04-08T17:25:51;9.75;;;6.03;;
30613;SDS011;17381;51.690;5.270;2023-04-08T17:28:39;7.90;;;5.80;;
30613;SDS011;17381;51.690;5.270;2023-04-08T17:31:22;8.45;;;5.50;;
30613;SDS011;17381;51.690;5.270;2023-04-08T17:34:11;9.80;;;6.00;;
30613;SDS011;17381;51.690;5.270;2023-04-08T17:37:10;10.23;;;6.57;;
30613;SDS011;17381;51.690;5.270;2023-04-08T17:40:18;8.85;;;5.95;;
30613;SDS011;17381;51.690;5.270;2023-04-08T17:43:17;13.55;;;7.28;;
30613;SDS011;17381;51.690;5.270;2023-04-08T17:46:25;9.07;;;5.90;;
30613;SDS011;17381;51.690;5.270;2023-04-08T17:49:15;9.52;;;5.93;;
30613;SDS011;17381;51.690;5.270;2023-04-08T17:51:59;10.75;;;7.07;;
30613;SDS011;17381;51.690;5.270;2023-04-08T17:54:52;10.43;;;6.45;;
30613;SDS011;17381;51.690;5.270;2023-04-08T17:57:50;10.90;;;6.97;;
30613;SDS011;17381;51.690;5.270;2023-04-08T18:00:43;10.05;;;6.07;;
30613;SDS011;17381;51.690;5.270;2023-04-08T18:03:27;8.57;;;5.72;;
30613;SDS011;17381;51.690;5.270;2023-04-08T18:06:18;9.82;;;6.80;;
30613;SDS011;17381;51.690;5.270;2023-04-08T18:09:27;9.52;;;6.15;;
30613;SDS011;17381;51.690;5.270;2023-04-08T18:12:02;9.50;;;6.10;;
30613;SDS011;17381;51.690;5.270;2023-04-08T18:15:04;10.82;;;6.43;;
30613;SDS011;17381;51.690;5.270;2023-04-08T18:18:00;11.55;;;6.93;;
30613;SDS011;17381;51.690;5.270;2023-04-08T18:21:07;10.48;;;7.03;;
30613;SDS011;17381;51.690;5.270;2023-04-08T18:24:05;9.65;;;6.72;;
30613;SDS011;17381;51.690;5.270;2023-04-08T18:27:00;9.32;;;6.22;;
30613;SDS011;17381;51.690;5.270;2023-04-08T18:33:12;10.70;;;6.95;;
30613;SDS011;17381;51.690;5.270;2023-04-08T18:35:58;12.18;;;6.90;;
30613;SDS011;17381;51.690;5.270;2023-04-08T18:39:12;10.80;;;6.60;;
30613;SDS011;17381;51.690;5.270;2023-04-08T18:52:59;11.43;;;7.45;;
30613;SDS011;17381;51.690;5.270;2023-04-08T18:56:25;12.27;;;7.82;;
30613;SDS011;17381;51.690;5.270;2023-04-08T18:59:18;11.68;;;7.78;;
30613;SDS011;17381;51.690;5.270;2023-04-08T19:01:56;14.38;;;8.25;;
30613;SDS011;17381;51.690;5.270;2023-04-08T19:04:37;12.93;;;8.98;;
30613;SDS011;17381;51.690;5.270;2023-04-08T19:07:33;15.63;;;8.90;;
30613;SDS011;17381;51.690;5.270;2023-04-08T19:11:25;13.13;;;8.43;;
30613;SDS011;17381;51.690;5.270;2023-04-08T19:13:29;12.18;;;8.10;;
30613;SDS011;17381;51.690;5.270;2023-04-08T19:16:25;12.85;;;8.65;;
30613;SDS011;17381;51.690;5.270;2023-04-08T19:22:00;13.25;;;8.70;;
30613;SDS011;17381;51.690;5.270;2023-04-08T19:24:56;13.13;;;8.52;;
30613;SDS011;17381;51.690;5.270;2023-04-08T19:27:36;12.88;;;8.38;;